Time;durP1;ratioP1;P1;durP2;ratioP2;P2;SDS_P1;SDS_P2;PMS_P1;PMS_P2;Temp;Humidity;BMP_temperature;BMP_pressure;BME280_temperature;BME280_humidity;BME280_pressure;Samples;Min_cycle;Max_cycle;Signal;HPM_P1;HPM_P2
2021/12/01 00:02:13;;;;;;;0.20;0.20;;;;;;;7.60;100.00;99473.53;5054818;28;20536;-49
2021/12/01 00:04:40;;;;;;;0.20;0.13;;;;;;;7.59;100.00;99471.81;5056217;28;20572;-48
2021/12/01 00:07:08;;;;;;;0.20;0.10;;;;;;;7.56;100.00;99462.19;5042019;28;20451;-49
2021/12/01 00:09:35;;;;;;;0.20;0.20;;;;;;;7.69;100.00;99449.47;5036211;28;20455;-49
2021/12/01 00:12:02;;;;;;;0.20;0.10;;;;;;;7.61;100.00;99456.75;5035622;28;20579;-49
2021/12/01 00:14:28;;;;;;;0.20;0.10;;;;;;;7.71;100.00;99447.66;5035727;28;20501;-49
2021/12/01 00:16:55;;;;;;;0.30;0.20;;;;;;;7.57;100.00;99444.56;5035372;28;20908;-49
2021/12/01 00:19:22;;;;;;;0.20;0.20;;;;;;;7.54;100.00;99444.63;5035530;28;20501;-49
2021/12/01 00:21:49;;;;;;;0.20;0.20;;;;;;;7.49;100.00;99442.13;5036017;28;20479;-49
2021/12/01 00:24:15;;;;;;;0.30;0.20;;;;;;;7.62;100.00;99438.19;5036373;28;20509;-49
2021/12/01 00:26:42;;;;;;;0.20;0.10;;;;;;;7.59;100.00;99446.22;5035375;28;20447;-49
2021/12/01 00:29:08;;;;;;;0.20;0.20;;;;;;;7.59;100.00;99440.06;5035775;28;20524;-49
2021/12/01 00:31:35;;;;;;;0.20;0.10;;;;;;;7.61;100.00;99440.91;5035869;28;20467;-49
2021/12/01 00:34:02;;;;;;;0.20;0.10;;;;;;;7.68;100.00;99440.69;5035327;28;20448;-49
2021/12/01 00:36:29;;;;;;;0.20;0.20;;;;;;;7.67;100.00;99438.03;5035075;28;20485;-49
2021/12/01 00:38:55;;;;;;;0.20;0.20;;;;;;;7.71;100.00;99429.13;5035550;28;20501;-49
2021/12/01 00:41:23;;;;;;;0.20;0.10;;;;;;;7.65;100.00;99424.00;5048286;28;20471;-49
2021/12/01 00:43:50;;;;;;;0.20;0.10;;;;;;;7.66;100.00;99442.47;5035209;28;20502;-50
2021/12/01 00:46:24;;;;;;;0.20;0.20;;;;;;;7.53;100.00;99440.25;5036129;28;20451;-49
2021/12/01 00:48:51;;;;;;;0.20;0.13;;;;;;;7.66;100.00;99437.19;5035336;28;21038;-49
2021/12/01 00:51:18;;;;;;;0.20;0.20;;;;;;;7.68;100.00;99432.75;5035204;28;20464;-49
2021/12/01 00:53:44;;;;;;;0.20;0.20;;;;;;;7.72;100.00;99429.06;5035119;28;20490;-49
2021/12/01 00:56:11;;;;;;;0.20;0.10;;;;;;;7.74;100.00;99442.25;5039063;28;20870;-49
2021/12/01 00:58:38;;;;;;;0.30;0.20;;;;;;;7.74;100.00;99439.59;5055070;28;20466;-49
2021/12/01 01:01:04;;;;;;;0.20;0.20;;;;;;;7.78;100.00;99441.25;5054687;28;20920;-49
2021/12/01 01:03:32;;;;;;;0.20;0.20;;;;;;;7.70;100.00;99443.28;5054601;28;20450;-49
2021/12/01 01:05:59;;;;;;;0.20;0.20;;;;;;;7.75;100.00;99430.75;5050128;28;20502;-49
2021/12/01 01:08:25;;;;;;;0.20;0.20;;;;;;;7.70;100.00;99430.03;5034623;28;20495;-49
2021/12/01 01:16:28;;;;;;;0.20;0.20;;;;;;;7.51;100.00;99407.69;5031412;28;20455;-49
2021/12/01 01:19:04;;;;;;;0.20;0.20;;;;;;;7.57;100.00;99410.19;5033099;28;20450;-49
2021/12/01 01:21:35;;;;;;;0.20;0.20;;;;;;;7.58;100.00;99418.06;5034336;28;20522;-49
2021/12/01 01:24:03;;;;;;;0.30;0.20;;;;;;;7.52;100.00;99414.72;5034431;28;20945;-49
2021/12/01 01:26:32;;;;;;;0.20;0.20;;;;;;;7.56;100.00;99400.50;5034096;28;20448;-50
2021/12/01 01:28:59;;;;;;;0.20;0.20;;;;;;;7.67;100.00;99403.66;5034180;28;20487;-49
2021/12/01 01:31:26;;;;;;;0.20;0.10;;;;;;;7.77;100.00;99397.19;5033986;28;20471;-50
2021/12/01 01:33:53;;;;;;;0.20;0.20;;;;;;;7.58;100.00;99396.03;5020930;28;20480;-50
2021/12/01 01:36:20;;;;;;;0.20;0.20;;;;;;;7.61;100.00;99394.16;5034205;28;20448;-50
2021/12/01 01:38:47;;;;;;;0.30;0.20;;;;;;;7.62;100.00;99393.25;5020844;28;20444;-49
2021/12/01 01:41:14;;;;;;;0.30;0.20;;;;;;;7.58;100.00;99380.16;5047048;28;20905;-49
2021/12/01 01:43:43;;;;;;;0.20;0.20;;;;;;;7.57;100.00;99381.94;5034102;28;20480;-49
2021/12/01 01:46:10;;;;;;;0.20;0.20;;;;;;;7.54;100.00;99382.06;5035021;28;20458;-49
2021/12/01 01:51:20;;;;;;;0.20;0.20;;;;;;;7.53;100.00;99376.78;5033617;28;20533;-49
2021/12/01 01:53:48;;;;;;;0.20;0.20;;;;;;;7.46;100.00;99384.06;5033950;28;20486;-49
2021/12/01 01:56:15;;;;;;;0.20;0.10;;;;;;;7.54;100.00;99379.41;5038651;28;20485;-50
2021/12/01 01:58:42;;;;;;;0.30;0.20;;;;;;;7.74;100.00;99386.72;5053563;28;20455;-50
2021/12/01 02:01:23;;;;;;;0.20;0.20;;;;;;;7.56;100.00;99371.44;5053504;28;20462;-50
2021/12/01 02:03:50;;;;;;;0.20;0.20;;;;;;;7.40;100.00;99371.91;5053319;28;20497;-49
2021/12/01 02:06:22;;;;;;;0.20;0.20;;;;;;;7.52;100.00;99370.63;5053293;28;20989;-50
2021/12/01 02:08:54;;;;;;;0.20;0.10;;;;;;;7.53;100.00;99374.13;5038661;28;20491;-50
2021/12/01 02:11:22;;;;;;;0.20;0.20;;;;;;;7.63;100.00;99365.00;5033305;28;21054;-49
2021/12/01 02:13:49;;;;;;;0.20;0.20;;;;;;;7.49;100.00;99364.59;5033392;28;20448;-49
2021/12/01 02:16:18;;;;;;;0.20;0.20;;;;;;;7.23;100.00;99360.94;5033325;28;20455;-49
2021/12/01 02:18:45;;;;;;;0.20;0.10;;;;;;;7.36;100.00;99357.03;5049092;28;20936;-49
2021/12/01 02:21:28;;;;;;;0.30;0.20;;;;;;;7.40;100.00;99350.75;5053289;28;20462;-49
2021/12/01 02:23:58;;;;;;;0.30;0.20;;;;;;;7.29;100.00;99339.63;5043205;28;20443;-49
2021/12/01 02:26:27;;;;;;;0.20;0.20;;;;;;;7.25;100.00;99329.19;5033088;28;20487;-49
2021/12/01 02:28:56;;;;;;;0.20;0.10;;;;;;;7.32;100.00;99326.31;5032747;28;20530;-50
2021/12/01 02:31:28;;;;;;;0.20;0.20;;;;;;;7.17;100.00;99318.88;5033081;28;20476;-49
2021/12/01 02:33:56;;;;;;;0.20;0.10;;;;;;;7.12;100.00;99312.84;5033079;28;20506;-49
2021/12/01 02:36:23;;;;;;;0.20;0.17;;;;;;;7.28;100.00;99303.53;5033679;28;20819;-49
2021/12/01 02:38:50;;;;;;;0.30;0.20;;;;;;;7.16;100.00;99317.13;5051137;28;20481;-49
2021/12/01 02:41:24;;;;;;;0.20;0.10;;;;;;;7.18;100.00;99307.38;5045969;28;20475;-49
2021/12/01 02:43:51;;;;;;;0.20;0.20;;;;;;;7.04;100.00;99293.72;5033058;28;20446;-50
2021/12/01 02:46:18;;;;;;;0.20;0.13;;;;;;;7.09;100.00;99289.16;5033615;28;20874;-49
2021/12/01 02:48:46;;;;;;;0.20;0.10;;;;;;;7.17;100.00;99281.00;5032656;28;20494;-50
2021/12/01 02:51:13;;;;;;;0.20;0.10;;;;;;;7.18;100.00;99265.09;5032769;28;20537;-50
2021/12/01 02:53:41;;;;;;;0.20;0.20;;;;;;;7.05;100.00;99276.94;5032579;28;20517;-49
2021/12/01 02:56:08;;;;;;;0.20;0.20;;;;;;;6.96;100.00;99270.16;5036679;28;20454;-50
2021/12/01 02:58:40;;;;;;;0.20;0.10;;;;;;;6.97;100.00;99256.03;5052726;28;20451;-49
2021/12/01 03:01:15;;;;;;;0.20;0.17;;;;;;;6.97;100.00;99257.81;5052694;28;20467;-49
2021/12/01 03:03:42;;;;;;;0.20;0.20;;;;;;;7.02;100.00;99256.78;5052426;28;20449;-49
2021/12/01 03:06:10;;;;;;;0.20;0.10;;;;;;;6.98;100.00;99241.91;5052152;28;20454;-49
2021/12/01 03:08:40;;;;;;;0.20;0.10;;;;;;;7.13;100.00;99237.97;5038873;28;20992;-49
2021/12/01 03:11:07;;;;;;;0.20;0.17;;;;;;;7.07;100.00;99232.84;5032191;28;20471;-49
2021/12/01 03:13:33;;;;;;;0.20;0.10;;;;;;;7.07;100.00;99230.22;5032821;28;20482;-49
2021/12/01 03:16:01;;;;;;;0.20;0.20;;;;;;;7.02;100.00;99229.50;5032259;28;20512;-49
2021/12/01 03:18:28;;;;;;;0.20;0.10;;;;;;;7.07;100.00;99219.63;5032118;28;20504;-51
2021/12/01 03:20:55;;;;;;;0.20;0.10;;;;;;;7.07;100.00;99219.63;5032012;28;20452;-51
2021/12/01 03:23:23;;;;;;;0.20;0.10;;;;;;;6.94;100.00;99202.44;5031881;28;20509;-51
2021/12/01 03:25:50;;;;;;;0.20;0.10;;;;;;;7.01;100.00;99214.56;5032490;28;20517;-51
2021/12/01 03:28:18;;;;;;;0.20;0.20;;;;;;;6.89;100.00;99204.38;5032258;28;20545;-51
2021/12/01 03:30:46;;;;;;;0.20;0.10;;;;;;;7.02;100.00;99203.94;5031927;28;20451;-51
2021/12/01 03:33:21;;;;;;;0.20;0.10;;;;;;;7.08;100.00;99201.09;5031904;28;20821;-50
2021/12/01 03:35:50;;;;;;;0.20;0.20;;;;;;;7.15;100.00;99190.34;5032477;28;20447;-51
2021/12/01 03:38:20;;;;;;;0.20;0.10;;;;;;;7.15;100.00;99191.22;5036092;28;20448;-50
2021/12/01 03:40:48;;;;;;;0.30;0.10;;;;;;;7.04;100.00;99191.53;5047649;28;20471;-50
2021/12/01 03:43:15;;;;;;;0.30;0.20;;;;;;;6.94;100.00;99170.75;5037977;28;20448;-50
2021/12/01 03:45:43;;;;;;;0.20;0.10;;;;;;;7.08;100.00;99173.81;5036534;28;20909;-50
2021/12/01 03:48:10;;;;;;;0.20;0.10;;;;;;;7.13;100.00;99163.97;5038121;28;20456;-50
2021/12/01 03:50:39;;;;;;;0.20;0.10;;;;;;;7.09;100.00;99167.59;5037066;28;20451;-50
2021/12/01 03:53:06;;;;;;;0.20;0.17;;;;;;;7.08;100.00;99147.38;5037198;28;20510;-50
2021/12/01 03:55:35;;;;;;;0.20;0.10;;;;;;;7.16;100.00;99141.88;5036451;28;20492;-50
2021/12/01 03:58:03;;;;;;;0.20;0.10;;;;;;;7.11;100.00;99123.50;5056118;28;21014;-50
2021/12/01 04:00:29;;;;;;;0.20;0.20;;;;;;;7.11;100.00;99115.56;5056675;28;20484;-50
2021/12/01 04:02:57;;;;;;;0.20;0.20;;;;;;;7.14;100.00;99107.56;5057531;28;20550;-50
2021/12/01 04:05:23;;;;;;;0.20;0.20;;;;;;;7.08;100.00;99110.41;5057052;28;20455;-50
2021/12/01 04:07:50;;;;;;;0.20;0.10;;;;;;;7.19;100.00;99102.97;5049735;28;20501;-50
2021/12/01 04:10:17;;;;;;;0.20;0.20;;;;;;;7.05;100.00;99092.00;5037000;28;20537;-50
2021/12/01 04:12:45;;;;;;;0.20;0.17;;;;;;;7.02;100.00;99077.13;5036927;28;20530;-50
2021/12/01 04:15:13;;;;;;;0.20;0.20;;;;;;;7.18;100.00;99058.97;5035880;28;20471;-50
2021/12/01 04:17:42;;;;;;;0.20;0.10;;;;;;;7.01;100.00;99051.63;5035921;28;20451;-50
2021/12/01 04:20:12;;;;;;;0.30;0.30;;;;;;;7.06;100.00;99051.47;5035770;28;20443;-50
2021/12/01 04:22:39;;;;;;;0.20;0.10;;;;;;;7.08;100.00;99053.13;5035612;28;20513;-50
2021/12/01 04:25:07;;;;;;;0.20;0.20;;;;;;;7.07;100.00;99055.84;5037514;28;20447;-50
2021/12/01 04:27:34;;;;;;;0.20;0.10;;;;;;;7.14;100.00;99044.16;5046168;28;20458;-50
2021/12/01 04:30:01;;;;;;;0.20;0.10;;;;;;;7.08;100.00;99050.50;5034966;28;20487;-49
2021/12/01 04:32:28;;;;;;;0.20;0.20;;;;;;;7.18;100.00;99040.47;5035908;28;20467;-50
2021/12/01 04:34:57;;;;;;;0.20;0.17;;;;;;;7.20;100.00;99043.06;5035155;28;20908;-50
2021/12/01 04:37:24;;;;;;;0.20;0.10;;;;;;;7.20;100.00;99045.69;5045087;28;20559;-50
2021/12/01 04:39:52;;;;;;;0.20;0.10;;;;;;;7.04;100.00;99040.09;5048556;28;20858;-50
2021/12/01 04:42:19;;;;;;;0.23;0.20;;;;;;;7.02;100.00;99044.56;5044709;28;21000;-49
2021/12/01 04:44:46;;;;;;;0.20;0.17;;;;;;;6.95;100.00;99037.75;5036069;28;20505;-50
2021/12/01 04:47:15;;;;;;;0.20;0.20;;;;;;;7.12;100.00;99030.97;5036046;28;20506;-49
2021/12/01 04:49:42;;;;;;;0.20;0.10;;;;;;;7.13;100.00;99031.84;5034965;28;20537;-50
2021/12/01 04:52:10;;;;;;;0.20;0.13;;;;;;;7.15;100.00;99026.50;5034912;28;20471;-50
2021/12/01 04:54:38;;;;;;;0.20;0.10;;;;;;;7.14;100.00;99023.00;5034430;28;20485;-49
2021/12/01 04:57:06;;;;;;;0.20;0.20;;;;;;;7.17;100.00;99012.31;5046525;28;20446;-49
2021/12/01 04:59:33;;;;;;;0.20;0.10;;;;;;;7.24;100.00;99011.19;5054505;28;21006;-50
2021/12/01 05:02:01;;;;;;;0.20;0.17;;;;;;;7.20;100.00;99006.94;5054666;28;21023;-50
2021/12/01 05:04:28;;;;;;;0.20;0.20;;;;;;;7.21;100.00;99006.00;5054603;28;20450;-50
2021/12/01 05:06:55;;;;;;;0.20;0.20;;;;;;;7.05;100.00;99016.25;5037843;28;20862;-50
2021/12/01 05:09:23;;;;;;;0.20;0.20;;;;;;;7.13;100.00;99006.28;5035948;28;20488;-50
2021/12/01 05:11:49;;;;;;;0.20;0.20;;;;;;;7.20;100.00;99008.72;5034975;28;20468;-50
2021/12/01 05:14:16;;;;;;;0.20;0.10;;;;;;;7.17;100.00;99014.09;5034882;28;20451;-50
2021/12/01 05:16:43;;;;;;;0.20;0.20;;;;;;;7.13;100.00;98995.72;5034413;28;20483;-50
2021/12/01 05:19:10;;;;;;;0.20;0.10;;;;;;;7.10;100.00;98993.16;5054366;28;20454;-50
2021/12/01 05:21:38;;;;;;;0.20;0.20;;;;;;;7.16;100.00;98981.53;5054576;28;20517;-50
2021/12/01 05:24:05;;;;;;;0.20;0.10;;;;;;;6.98;100.00;98987.44;5043292;28;21010;-49
2021/12/01 05:26:32;;;;;;;0.20;0.10;;;;;;;7.11;100.00;98980.81;5034699;28;20460;-50
2021/12/01 05:28:59;;;;;;;0.20;0.10;;;;;;;7.13;100.00;98979.00;5034213;28;20491;-50
2021/12/01 05:31:26;;;;;;;0.20;0.20;;;;;;;6.99;100.00;98965.41;5034642;28;20467;-50
2021/12/01 05:33:53;;;;;;;0.20;0.20;;;;;;;6.96;100.00;98968.16;5035447;28;20451;-49
2021/12/01 05:36:20;;;;;;;0.20;0.20;;;;;;;7.08;100.00;98963.31;5033821;28;20600;-50
2021/12/01 05:38:47;;;;;;;0.20;0.10;;;;;;;7.20;100.00;98969.06;5033928;28;20452;-50
2021/12/01 05:41:14;;;;;;;0.20;0.10;;;;;;;7.14;100.00;98956.97;5047237;28;20474;-50
2021/12/01 05:43:41;;;;;;;1.50;1.50;;;;;;;7.20;100.00;98954.06;5042922;28;20447;-50
2021/12/01 05:46:07;;;;;;;0.20;0.20;;;;;;;7.18;100.00;98936.56;5052108;28;20455;-50
2021/12/01 05:48:34;;;;;;;0.20;0.20;;;;;;;7.21;100.00;98931.16;5033682;28;20575;-51
2021/12/01 05:51:01;;;;;;;0.20;0.20;;;;;;;7.15;100.00;98937.53;5033379;28;20472;-50
2021/12/01 05:53:28;;;;;;;0.20;0.20;;;;;;;7.18;100.00;98941.84;5033632;28;20513;-51
2021/12/01 05:55:55;;;;;;;0.20;0.20;;;;;;;7.22;100.00;98930.22;5035978;28;20448;-51
2021/12/01 05:58:21;;;;;;;0.30;0.20;;;;;;;7.18;100.00;98923.34;5053222;28;20478;-51
2021/12/01 06:00:48;;;;;;;0.20;0.10;;;;;;;7.19;100.00;98927.72;5052976;28;20443;-51
2021/12/01 06:03:15;;;;;;;0.20;0.20;;;;;;;7.39;100.00;98923.38;5053464;28;20451;-51
2021/12/01 06:05:43;;;;;;;0.20;0.20;;;;;;;7.26;100.00;98922.13;5053061;28;20455;-50
2021/12/01 06:08:10;;;;;;;0.40;0.40;;;;;;;7.23;100.00;98905.53;5043546;28;20456;-50
2021/12/01 06:10:40;;;;;;;0.20;0.20;;;;;;;7.28;100.00;98904.47;5033153;28;21007;-51
2021/12/01 06:13:07;;;;;;;0.20;0.20;;;;;;;7.18;100.00;98889.84;5033421;28;20510;-50
2021/12/01 06:15:34;;;;;;;0.20;0.13;;;;;;;7.28;100.00;98880.66;5033262;28;20941;-50
2021/12/01 06:18:01;;;;;;;0.20;0.10;;;;;;;7.30;100.00;98880.59;5043841;28;21022;-51
2021/12/01 06:20:28;;;;;;;0.20;0.20;;;;;;;7.39;100.00;98870.53;5035841;28;20440;-50
2021/12/01 06:22:54;;;;;;;0.20;0.20;;;;;;;7.23;100.00;98869.38;5032828;28;21004;-50
2021/12/01 06:25:21;;;;;;;0.20;0.20;;;;;;;7.25;100.00;98869.31;5050906;28;20481;-51
2021/12/01 06:27:53;;;;;;;0.20;0.20;;;;;;;7.42;100.00;98866.94;5041423;28;20524;-50
2021/12/01 06:30:21;;;;;;;0.20;0.20;;;;;;;7.34;100.00;98861.06;5032861;28;20545;-51
2021/12/01 06:32:49;;;;;;;0.20;0.20;;;;;;;7.39;100.00;98841.44;5032613;28;20482;-51
2021/12/01 06:35:16;;;;;;;0.20;0.20;;;;;;;7.41;100.00;98847.56;5033226;28;20448;-51
2021/12/01 06:37:43;;;;;;;0.20;0.20;;;;;;;7.57;100.00;98841.66;5044893;28;20443;-51
2021/12/01 06:40:10;;;;;;;0.20;0.20;;;;;;;7.49;100.00;98834.03;5046172;28;20443;-51
2021/12/01 06:42:36;;;;;;;0.20;0.20;;;;;;;7.39;100.00;98824.72;5039228;28;21046;-51
2021/12/01 06:45:05;;;;;;;0.20;0.20;;;;;;;7.48;100.00;98824.38;5032396;28;20452;-51
2021/12/01 06:47:32;;;;;;;0.20;0.20;;;;;;;7.40;100.00;98816.75;5025881;28;20509;-51
2021/12/01 06:49:59;;;;;;;0.20;0.20;;;;;;;7.50;100.00;98811.09;5019370;28;20523;-51
2021/12/01 06:52:29;;;;;;;0.20;0.13;;;;;;;7.39;100.00;98807.09;5032303;28;20471;-51
2021/12/01 06:54:58;;;;;;;0.20;0.20;;;;;;;7.47;100.00;98803.28;5032380;28;20456;-51
2021/12/01 06:57:25;;;;;;;0.30;0.20;;;;;;;7.36;100.00;98788.72;5032705;28;20448;-51
2021/12/01 06:59:52;;;;;;;0.30;0.20;;;;;;;7.32;100.00;98796.84;5032359;28;20436;-50
2021/12/01 07:02:19;;;;;;;0.20;0.10;;;;;;;7.29;100.00;98791.66;5032439;28;20468;-51
2021/12/01 07:04:46;;;;;;;0.20;0.20;;;;;;;7.34;100.00;98801.13;5032212;28;20829;-51
2021/12/01 07:07:12;;;;;;;0.20;0.10;;;;;;;7.34;100.00;98779.13;5032251;28;20459;-51
2021/12/01 07:09:40;;;;;;;0.20;0.20;;;;;;;7.32;100.00;98778.34;5032130;28;20722;-51
2021/12/01 07:12:07;;;;;;;0.20;0.20;;;;;;;7.33;100.00;98775.63;5031309;28;20475;-51
2021/12/01 07:14:33;;;;;;;0.30;0.20;;;;;;;7.45;100.00;98778.69;5032194;28;21003;-51
2021/12/01 07:17:00;;;;;;;0.20;0.20;;;;;;;7.51;100.00;98766.09;5028542;28;20519;-51
2021/12/01 07:19:27;;;;;;;0.20;0.20;;;;;;;7.45;100.00;98761.06;5032219;28;20467;-51
2021/12/01 07:21:53;;;;;;;0.70;0.70;;;;;;;7.39;100.00;98756.00;5034228;28;21020;-51
2021/12/01 07:24:20;;;;;;;0.20;0.17;;;;;;;7.46;100.00;98756.63;5047930;28;20455;-51
2021/12/01 07:26:47;;;;;;;0.20;0.20;;;;;;;7.44;100.00;98740.84;5036119;28;20456;-51
2021/12/01 07:29:13;;;;;;;0.20;0.10;;;;;;;7.34;100.00;98742.13;5032266;28;20470;-51
2021/12/01 07:31:40;;;;;;;0.20;0.20;;;;;;;7.37;100.00;98736.72;5031734;28;20476;-51
2021/12/01 07:34:06;;;;;;;0.20;0.17;;;;;;;7.47;100.00;98743.34;5031951;28;20460;-51
2021/12/01 07:36:33;;;;;;;0.20;0.10;;;;;;;7.43;100.00;98734.69;5035029;28;20451;-51
2021/12/01 07:39:00;;;;;;;0.20;0.20;;;;;;;7.48;100.00;98728.34;5042133;28;20510;-51
2021/12/01 07:41:26;;;;;;;0.20;0.20;;;;;;;7.55;100.00;98724.53;5031553;28;21065;-51
2021/12/01 07:43:54;;;;;;;0.20;0.20;;;;;;;7.61;100.00;98711.06;5032204;28;20448;-51
2021/12/01 07:46:20;;;;;;;0.20;0.10;;;;;;;7.49;100.00;98699.19;5033110;28;20451;-51
2021/12/01 07:48:47;;;;;;;0.20;0.20;;;;;;;7.46;100.00;98698.47;5032035;28;20460;-51
2021/12/01 07:51:15;;;;;;;7.63;1.50;;;;;;;7.44;100.00;98706.47;5031734;28;20519;-51
2021/12/01 07:53:43;;;;;;;0.20;0.20;;;;;;;7.39;100.00;98695.22;5031748;28;20509;-51
2021/12/01 07:56:09;;;;;;;0.20;0.20;;;;;;;7.55;100.00;98688.38;5031924;28;20478;-51
2021/12/01 07:58:36;;;;;;;0.20;0.20;;;;;;;7.47;100.00;98677.25;5032096;28;20456;-51
2021/12/01 08:01:03;;;;;;;0.20;0.10;;;;;;;7.60;100.00;98686.38;5036233;28;20524;-51
2021/12/01 08:03:30;;;;;;;0.20;0.20;;;;;;;7.58;100.00;98679.47;5040423;28;20444;-50
2021/12/01 08:05:56;;;;;;;0.20;0.20;;;;;;;7.45;100.00;98667.69;5031830;28;20497;-50
2021/12/01 08:08:23;;;;;;;0.20;0.20;;;;;;;7.46;100.00;98653.53;5031809;28;20452;-51
2021/12/01 08:10:50;;;;;;;0.20;0.20;;;;;;;7.54;100.00;98654.94;5031602;28;20496;-51
2021/12/01 08:13:16;;;;;;;0.20;0.20;;;;;;;7.63;100.00;98664.25;5031859;28;20452;-50
2021/12/01 08:15:48;;;;;;;0.20;0.20;;;;;;;7.62;100.00;98651.94;5031594;28;20466;-51
2021/12/01 08:18:15;;;;;;;0.20;0.20;;;;;;;7.61;100.00;98634.38;5044478;28;20454;-51
2021/12/01 08:20:42;;;;;;;0.20;0.20;;;;;;;7.65;100.00;98638.59;5038154;28;20508;-50
2021/12/01 08:23:09;;;;;;;0.20;0.20;;;;;;;7.65;100.00;98628.00;5050492;28;20498;-51
2021/12/01 08:25:36;;;;;;;0.20;0.20;;;;;;;7.75;100.00;98624.03;5035499;28;20447;-51
2021/12/01 08:28:03;;;;;;;0.20;0.20;;;;;;;7.65;100.00;98605.06;5035176;28;20961;-51
2021/12/01 08:30:32;;;;;;;0.30;0.10;;;;;;;7.86;100.00;98623.59;5021827;28;20553;-50
2021/12/01 08:32:59;;;;;;;0.20;0.20;;;;;;;7.85;100.00;98613.94;5034863;28;20471;-51
2021/12/01 08:35:26;;;;;;;0.20;0.20;;;;;;;7.71;100.00;98617.19;5035013;28;20459;-51
2021/12/01 08:37:53;;;;;;;0.20;0.10;;;;;;;7.65;100.00;98610.34;5035249;28;20451;-51
2021/12/01 08:40:20;;;;;;;0.20;0.10;;;;;;;7.87;100.00;98606.78;5035132;28;20444;-51
2021/12/01 08:42:47;;;;;;;0.30;0.20;;;;;;;7.94;100.00;98601.13;5034634;28;20540;-51
2021/12/01 08:45:15;;;;;;;0.30;0.20;;;;;;;7.84;100.00;98610.44;5034927;28;20448;-51
2021/12/01 08:47:41;;;;;;;0.20;0.20;;;;;;;7.91;100.00;98611.00;5035842;28;20479;-51
2021/12/01 08:50:10;;;;;;;0.30;0.20;;;;;;;7.87;100.00;98604.13;5021701;28;20657;-51
2021/12/01 08:52:38;;;;;;;0.20;0.20;;;;;;;7.79;100.00;98612.41;5034482;28;20886;-50
2021/12/01 08:55:06;;;;;;;0.20;0.10;;;;;;;7.94;100.00;98598.47;5034711;28;20447;-51
2021/12/01 08:57:33;;;;;;;0.30;0.20;;;;;;;7.99;100.00;98600.94;5034626;28;20505;-51
2021/12/01 08:59:59;;;;;;;0.30;0.20;;;;;;;8.24;100.00;98593.59;5034696;28;20503;-51
2021/12/01 09:02:26;;;;;;;0.20;0.20;;;;;;;8.17;100.00;98586.00;5050535;28;20475;-51
2021/12/01 09:04:53;;;;;;;0.30;0.20;;;;;;;8.21;100.00;98587.56;5036553;28;20538;-51
2021/12/01 09:07:20;;;;;;;0.23;0.20;;;;;;;8.16;100.00;98576.34;5054221;28;20451;-51
2021/12/01 09:09:47;;;;;;;0.20;0.20;;;;;;;8.02;100.00;98569.03;5044490;28;20490;-51
2021/12/01 09:12:19;;;;;;;0.30;0.20;;;;;;;8.30;100.00;98565.97;5034307;28;20556;-51
2021/12/01 09:14:46;;;;;;;0.30;0.20;;;;;;;8.26;100.00;98562.63;5045230;28;20450;-51
2021/12/01 09:17:13;;;;;;;0.30;0.20;;;;;;;8.15;100.00;98561.41;5036370;28;20464;-51
2021/12/01 09:19:40;;;;;;;0.30;0.20;;;;;;;8.24;100.00;98559.19;5045434;28;20452;-51
2021/12/01 09:22:07;;;;;;;0.30;0.20;;;;;;;8.24;100.00;98561.84;5049618;28;20476;-51
2021/12/01 09:24:34;;;;;;;0.30;0.20;;;;;;;8.22;100.00;98554.88;5033995;28;20949;-51
2021/12/01 09:27:01;;;;;;;0.30;0.20;;;;;;;8.24;100.00;98568.91;5034153;28;20448;-51
2021/12/01 09:29:29;;;;;;;0.30;0.20;;;;;;;8.23;100.00;98543.38;5034144;28;20475;-51
2021/12/01 09:31:58;;;;;;;0.30;0.20;;;;;;;8.42;100.00;98544.25;5033777;28;20468;-51
2021/12/01 09:34:25;;;;;;;0.30;0.20;;;;;;;8.38;100.00;98533.88;5033362;28;20883;-51
2021/12/01 09:36:52;;;;;;;0.30;0.20;;;;;;;8.33;100.00;98523.47;5034176;28;20866;-51
2021/12/01 09:39:20;;;;;;;0.30;0.20;;;;;;;8.44;100.00;98521.19;5040989;28;20825;-51
2021/12/01 09:41:48;;;;;;;0.30;0.20;;;;;;;8.35;100.00;98526.06;5047327;28;20549;-51
2021/12/01 09:44:15;;;;;;;0.30;0.20;;;;;;;8.55;100.00;98521.53;5033667;28;20483;-51
2021/12/01 09:46:42;;;;;;;0.30;0.20;;;;;;;8.50;100.00;98502.38;5034670;28;20444;-51
2021/12/01 09:49:09;;;;;;;0.30;0.20;;;;;;;8.49;100.00;98498.00;5033596;28;20980;-51
2021/12/01 09:51:36;;;;;;;0.30;0.20;;;;;;;8.46;100.00;98506.09;5020638;28;20526;-51
2021/12/01 09:54:03;;;;;;;0.30;0.20;;;;;;;8.50;100.00;98509.47;5033513;28;20510;-51
2021/12/01 09:56:31;;;;;;;0.30;0.20;;;;;;;8.52;100.00;98508.47;5033597;28;20482;-51
2021/12/01 09:58:58;;;;;;;0.30;0.20;;;;;;;8.63;100.00;98483.22;5033950;28;21034;-51
2021/12/01 10:01:27;;;;;;;0.30;0.30;;;;;;;8.58;100.00;98499.34;5053471;28;20512;-51
2021/12/01 10:04:00;;;;;;;0.27;0.20;;;;;;;8.65;100.00;98481.38;5053423;28;20535;-51
2021/12/01 10:06:27;;;;;;;0.30;0.20;;;;;;;8.63;100.00;98477.91;5044899;28;20506;-51
2021/12/01 10:08:57;;;;;;;0.30;0.20;;;;;;;8.68;100.00;98467.97;5033377;28;20452;-51
2021/12/01 10:11:29;;;;;;;0.30;0.20;;;;;;;8.64;100.00;98463.78;5033050;28;20549;-51
2021/12/01 10:13:59;;;;;;;0.30;0.20;;;;;;;8.56;100.00;98448.25;5033284;28;20467;-51
2021/12/01 10:16:29;;;;;;;0.30;0.20;;;;;;;8.74;100.00;98431.41;5043978;28;20447;-51
2021/12/01 10:19:00;;;;;;;0.30;0.20;;;;;;;8.66;100.00;98436.25;5048130;28;20831;-51
2021/12/01 10:21:35;;;;;;;0.30;0.20;;;;;;;8.51;100.00;98427.31;5033231;28;21002;-51
2021/12/01 10:24:07;;;;;;;0.30;0.20;;;;;;;8.69;100.00;98409.63;5032918;28;20950;-51
2021/12/01 10:26:43;;;;;;;0.30;0.20;;;;;;;8.79;100.00;98405.56;5033107;28;20451;-51
2021/12/01 10:29:14;;;;;;;0.30;0.20;;;;;;;8.79;100.00;98400.28;5032990;28;20991;-51
2021/12/01 10:31:49;;;;;;;0.30;0.20;;;;;;;8.81;100.00;98398.41;5032611;28;20529;-51
2021/12/01 10:34:20;;;;;;;0.30;0.20;;;;;;;8.90;100.00;98381.16;5032727;28;20489;-51
2021/12/01 10:37:06;;;;;;;0.30;0.20;;;;;;;8.94;100.00;98385.38;5017085;28;20440;-51
2021/12/01 10:39:33;;;;;;;0.30;0.20;;;;;;;9.04;100.00;98389.22;5033819;28;20895;-51
2021/12/01 10:42:05;;;;;;;0.30;0.20;;;;;;;8.96;100.00;98387.94;5044422;28;20522;-51
2021/12/01 10:44:32;;;;;;;0.30;0.20;;;;;;;8.97;100.00;98390.50;5032535;28;20972;-51
2021/12/01 10:47:08;;;;;;;0.30;0.20;;;;;;;9.16;100.00;98383.28;5033550;28;20455;-51
2021/12/01 10:49:44;;;;;;;0.30;0.20;;;;;;;9.27;100.00;98380.03;5032499;28;20501;-51
2021/12/01 10:52:31;;;;;;;1.37;0.97;;;;;;;9.40;100.00;98380.25;5032320;28;20527;-52
2021/12/01 10:55:28;;;;;;;0.30;0.20;;;;;;;9.41;100.00;98371.34;5032466;28;20498;-51
2021/12/01 10:58:04;;;;;;;0.30;0.20;;;;;;;9.42;100.00;98362.44;5032388;28;20447;-51
2021/12/01 11:00:42;;;;;;;0.30;0.20;;;;;;;9.23;100.00;98367.91;5032384;28;20964;-51
2021/12/01 11:03:14;;;;;;;0.30;0.20;;;;;;;9.25;100.00;98366.03;5032452;28;20447;-51
2021/12/01 11:05:47;;;;;;;0.30;0.20;;;;;;;9.27;100.00;98347.38;5032176;28;20978;-51
2021/12/01 11:08:20;;;;;;;0.30;0.20;;;;;;;9.20;100.00;98357.47;5032555;28;20448;-51
2021/12/01 11:10:50;;;;;;;0.30;0.20;;;;;;;9.11;100.00;98347.38;5031954;28;20546;-51
2021/12/01 11:13:19;;;;;;;0.30;0.20;;;;;;;8.99;100.00;98338.28;5032202;28;21006;-51
2021/12/01 11:15:55;;;;;;;0.30;0.20;;;;;;;9.29;100.00;98333.09;5032193;28;20957;-51
2021/12/01 11:18:47;;;;;;;0.30;0.20;;;;;;;9.10;100.00;98330.59;5032045;28;20535;-52
2021/12/01 11:21:22;;;;;;;0.30;0.30;;;;;;;9.27;100.00;98323.53;5032245;28;20465;-51
2021/12/01 11:23:59;;;;;;;0.30;0.20;;;;;;;9.20;100.00;98323.88;5032129;28;20452;-51
2021/12/01 11:26:28;;;;;;;0.30;0.20;;;;;;;9.08;100.00;98313.94;5031973;28;20935;-51
2021/12/01 11:29:04;;;;;;;0.30;0.20;;;;;;;9.06;100.00;98296.41;5032285;28;20502;-51
2021/12/01 11:31:40;;;;;;;0.30;0.20;;;;;;;9.15;100.00;98288.78;5031843;28;20490;-51
2021/12/01 11:34:14;;;;;;;0.30;0.20;;;;;;;9.28;100.00;98275.72;5032642;28;20454;-49
2021/12/01 11:36:45;;;;;;;0.30;0.20;;;;;;;9.35;100.00;98273.59;5031971;28;20456;-49
2021/12/01 11:39:19;;;;;;;0.30;0.20;;;;;;;9.39;100.00;98260.06;5031942;28;20447;-49
2021/12/01 11:41:47;;;;;;;0.30;0.20;;;;;;;9.40;100.00;98247.66;5044969;28;20471;-49
2021/12/01 11:44:17;;;;;;;0.30;0.20;;;;;;;9.48;100.00;98253.41;5032009;28;20512;-49
2021/12/01 11:46:46;;;;;;;0.30;0.20;;;;;;;9.56;100.00;98243.19;5032685;28;20521;-49
2021/12/01 11:49:16;;;;;;;0.30;0.20;;;;;;;9.50;100.00;98227.66;5031832;28;20987;-49